EZY1AM LXGB-LPMA
Flight info
| Callsign | EZY1AM |
|---|---|
| Flight time | N/A |
| Altitude | 36000 |
| Route | LINTO UN10 TNR UN726 BAMBA N726 ORTOP DCT NARTA/N0446F370 DCT RULET DCT RAKUN |
| Aircraft | A320/M-SDE3FGHIRWY/LB1 |
Departure
| Time | 2026-04-29 09:25 |
|---|---|
| Airport | Gibraltar Airport (LXGB) |
Arrival
| Time | N/A |
|---|---|
| Airport | Cristiano Ronaldo International Airport (LPMA) |
| Time | Latitude | Longitude | Altitude | Speed | Heading |
|---|---|---|---|---|---|
| 2026-04-29 09:01 | 36.15307 | -5.34585 | 19 ft | 0 kts | 357° |
| 2026-04-29 09:14 | 36.15306 | -5.34585 | 18 ft | 1 kts | 357° |
| 2026-04-29 09:14 | 36.15281 | -5.34584 | 20 ft | 4 kts | 357° |
| 2026-04-29 09:14 | 36.15260 | -5.34582 | 21 ft | 4 kts | 5° |
| 2026-04-29 09:15 | 36.15236 | -5.34591 | 19 ft | 4 kts | 45° |
| 2026-04-29 09:15 | 36.15227 | -5.34615 | 19 ft | 4 kts | 87° |
| 2026-04-29 09:15 | 36.15226 | -5.34632 | 22 ft | 0 kts | 87° |
| 2026-04-29 09:21 | 36.15227 | -5.34610 | 18 ft | 5 kts | 87° |
| 2026-04-29 09:21 | 36.15230 | -5.34544 | 19 ft | 10 kts | 87° |
| 2026-04-29 09:21 | 36.15233 | -5.34456 | 18 ft | 10 kts | 88° |
| 2026-04-29 09:21 | 36.15235 | -5.34379 | 18 ft | 8 kts | 88° |
| 2026-04-29 09:22 | 36.15237 | -5.34314 | 18 ft | 7 kts | 88° |
| 2026-04-29 09:22 | 36.15237 | -5.34260 | 18 ft | 7 kts | 104° |
| 2026-04-29 09:22 | 36.15167 | -5.34232 | 15 ft | 11 kts | 179° |
| 2026-04-29 09:22 | 36.15142 | -5.34179 | 16 ft | 8 kts | 86° |
| 2026-04-29 09:23 | 36.15154 | -5.34121 | 16 ft | 6 kts | 62° |
| 2026-04-29 09:23 | 36.15172 | -5.34080 | 16 ft | 6 kts | 62° |
| 2026-04-29 09:23 | 36.15163 | -5.34041 | 17 ft | 5 kts | 189° |
| 2026-04-29 09:23 | 36.15149 | -5.34076 | 18 ft | 5 kts | 266° |
| 2026-04-29 09:24 | 36.15149 | -5.34087 | 18 ft | 0 kts | 265° |
| 2026-04-29 09:24 | 36.15142 | -5.34196 | 18 ft | 47 kts | 265° |
| 2026-04-29 09:25 | 36.15117 | -5.34958 | 20 ft | 127 kts | 268° |
| 2026-04-29 09:25 | 36.15075 | -5.36267 | 333 ft | 162 kts | 266° |
| 2026-04-29 09:25 | 36.15047 | -5.37676 | 1144 ft | 166 kts | 265° |
| 2026-04-29 09:25 | 36.14959 | -5.39155 | 1886 ft | 176 kts | 256° |
| 2026-04-29 09:26 | 36.14343 | -5.40527 | 2232 ft | 195 kts | 233° |
| 2026-04-29 09:26 | 36.13493 | -5.41965 | 2614 ft | 219 kts | 233° |
| 2026-04-29 09:26 | 36.12550 | -5.43578 | 3060 ft | 242 kts | 234° |
| 2026-04-29 09:26 | 36.11553 | -5.45310 | 3777 ft | 251 kts | 234° |
| 2026-04-29 09:27 | 36.10540 | -5.47090 | 4669 ft | 255 kts | 233° |
| 2026-04-29 09:27 | 36.09718 | -5.49045 | 5526 ft | 261 kts | 252° |
| 2026-04-29 09:27 | 36.09489 | -5.51300 | 5903 ft | 266 kts | 264° |
| 2026-04-29 09:27 | 36.09413 | -5.53610 | 6578 ft | 270 kts | 265° |
| 2026-04-29 09:28 | 36.09358 | -5.55929 | 7452 ft | 271 kts | 265° |
| 2026-04-29 09:28 | 36.09306 | -5.58269 | 8257 ft | 274 kts | 265° |
| 2026-04-29 09:28 | 36.09248 | -5.60644 | 9053 ft | 278 kts | 265° |
| 2026-04-29 09:28 | 36.09184 | -5.63024 | 9848 ft | 282 kts | 265° |
| 2026-04-29 09:29 | 36.09112 | -5.65494 | 10321 ft | 298 kts | 265° |
| 2026-04-29 09:29 | 36.08937 | -5.70962 | 11008 ft | 332 kts | 265° |
| 2026-04-29 09:29 | 36.08846 | -5.73834 | 11688 ft | 336 kts | 265° |
| 2026-04-29 09:30 | 36.08756 | -5.76767 | 12441 ft | 339 kts | 266° |
| 2026-04-29 09:30 | 36.08669 | -5.79653 | 13145 ft | 342 kts | 266° |
| 2026-04-29 09:30 | 36.08580 | -5.82600 | 13814 ft | 345 kts | 266° |
| 2026-04-29 09:30 | 36.08487 | -5.85569 | 14411 ft | 347 kts | 266° |
| 2026-04-29 09:31 | 36.08392 | -5.88565 | 15018 ft | 350 kts | 266° |
| 2026-04-29 09:31 | 36.08296 | -5.91579 | 15633 ft | 352 kts | 266° |
| 2026-04-29 09:31 | 36.08198 | -5.94614 | 16278 ft | 355 kts | 266° |